createdAt,value
2018-04-13T00:00:30.867Z,94.7
2018-04-13T00:01:30.599Z,94.74
2018-04-13T00:02:30.590Z,94.93
2018-04-13T00:03:30.842Z,94.56
2018-04-13T00:04:30.835Z,94.6
2018-04-13T00:05:30.830Z,94.56
2018-04-13T00:06:30.816Z,94.37
2018-04-13T00:07:30.806Z,93.88
2018-04-13T00:08:30.802Z,93.41
2018-04-13T00:09:30.789Z,93.41
2018-04-13T00:10:30.784Z,93.03
2018-04-13T00:11:30.779Z,93.22
2018-04-13T00:12:30.766Z,93.88
2018-04-13T00:13:30.768Z,93.6
2018-04-13T00:14:30.747Z,92.93
2018-04-13T00:15:30.742Z,92.08
2018-04-13T00:16:30.731Z,92.65
2018-04-13T00:17:30.727Z,92.65
2018-04-13T00:18:30.723Z,91.41
2018-04-13T00:19:30.714Z,91.69
2018-04-13T00:20:30.698Z,91.79
2018-04-13T00:21:30.690Z,92.08
2018-04-13T00:22:30.687Z,92.36
2018-04-13T00:23:30.420Z,92.03
2018-04-13T00:24:30.671Z,92.55
2018-04-13T00:25:30.657Z,92.69
2018-04-13T00:26:30.659Z,92.65
2018-04-13T00:27:30.641Z,93.41
2018-04-13T00:28:30.635Z,93.41
2018-04-13T00:29:30.370Z,93.22
2018-04-13T00:30:30.665Z,93.6
2018-04-13T00:31:30.612Z,93.88
2018-04-13T00:32:30.347Z,93.79
2018-04-13T00:33:30.602Z,93.79
2018-04-13T00:34:30.589Z,94.27
2018-04-13T00:35:30.581Z,93.98
2018-04-13T00:36:30.318Z,93.79
2018-04-13T00:37:30.305Z,93.6
2018-04-13T00:38:30.297Z,93.7
2018-04-13T00:39:30.287Z,93.98
2018-04-13T00:40:30.538Z,93.7
2018-04-13T00:41:30.531Z,93.6
2018-04-13T00:42:30.261Z,93.6
2018-04-13T00:43:30.512Z,93.41
2018-04-13T00:44:30.504Z,93.6
2018-04-13T00:45:30.496Z,93.88
2018-04-13T00:46:30.486Z,93.88
2018-04-13T00:47:30.483Z,93.7
2018-04-13T00:48:30.470Z,93.41
2018-04-13T00:49:30.207Z,94.17
2018-04-13T00:50:30.456Z,93.32
2018-04-13T00:51:30.447Z,93.7
2018-04-13T00:52:30.440Z,92.17
2018-04-13T00:53:30.429Z,92.36
2018-04-13T00:54:30.417Z,92.84
2018-04-13T00:55:30.159Z,91.88
2018-04-13T00:56:30.405Z,92.08
2018-04-13T00:57:30.394Z,91.98
2018-04-13T00:58:30.386Z,92.46
2018-04-13T00:59:30.381Z,92.65
2018-04-13T01:00:30.377Z,93.41
2018-04-13T01:01:30.362Z,92.93
2018-04-13T01:02:30.354Z,92.69
2018-04-13T01:03:30.089Z,93.03
2018-04-13T01:04:30.343Z,92.36
2018-04-13T01:05:30.330Z,92.74
2018-04-13T01:06:30.320Z,93.03
2018-04-13T01:07:30.309Z,92.98
2018-04-13T01:08:30.302Z,92.55
2018-04-13T01:09:30.290Z,93.27
2018-04-13T01:10:30.025Z,92.69
2018-04-13T01:11:30.021Z,92.27
2018-04-13T01:12:30.266Z,92.5
2018-04-13T01:13:30.256Z,91.74
2018-04-13T01:14:30.255Z,92.22
2018-04-13T01:15:30.246Z,91.55
2018-04-13T01:16:30.240Z,92.32
2018-04-13T01:17:29.966Z,92.13
2018-04-13T01:18:30.220Z,91.17
2018-04-13T01:19:30.207Z,91.55
2018-04-13T01:20:30.202Z,91.55
2018-04-13T01:21:30.190Z,91.36
2018-04-13T01:22:30.189Z,91.84
2018-04-13T01:23:30.177Z,91.36
2018-04-13T01:24:30.164Z,91.27
2018-04-13T01:25:30.161Z,91.17
2018-04-13T01:26:30.151Z,90.98
2018-04-13T01:27:30.142Z,91.27
2018-04-13T01:28:30.151Z,90.89
2018-04-13T01:29:30.129Z,91.08
2018-04-13T01:30:30.116Z,91.13
2018-04-13T01:31:29.849Z,89.98
2018-04-13T01:32:29.842Z,90.65
2018-04-13T01:33:30.091Z,90.17
2018-04-13T01:34:30.078Z,90.94
2018-04-13T01:35:29.817Z,90.08
2018-04-13T01:36:30.062Z,90.65
2018-04-13T01:37:30.057Z,90.56
2018-04-13T01:38:30.049Z,90.46
2018-04-13T01:39:30.060Z,89.98
2018-04-13T01:40:30.029Z,90.08
2018-04-13T01:41:30.016Z,90.27
2018-04-13T01:42:29.755Z,89.61
2018-04-13T01:43:30.000Z,88.65
2018-04-13T01:44:29.993Z,89.22
2018-04-13T01:45:29.727Z,89.41
2018-04-13T01:46:30.024Z,88.75
2018-04-13T01:47:29.706Z,88.93
2018-04-13T01:48:29.956Z,88.37
2018-04-13T01:49:29.949Z,88.75
2018-04-13T01:50:29.941Z,88.42
2018-04-13T01:51:29.671Z,87.46
2018-04-13T01:52:29.926Z,87.37
2018-04-13T01:53:29.908Z,87.46
2018-04-13T01:54:29.905Z,88.23
2018-04-13T01:55:29.893Z,88.04
2018-04-13T01:56:29.885Z,88.04
2018-04-13T01:57:29.873Z,88.42
2018-04-13T01:58:29.875Z,87.27
2018-04-13T01:59:29.857Z,86.99
2018-04-13T02:00:29.590Z,86.9
2018-04-13T02:01:29.841Z,87.37
2018-04-13T02:02:29.829Z,87.65
2018-04-13T02:03:29.564Z,86.99
2018-04-13T02:04:29.553Z,87.27
2018-04-13T02:05:29.806Z,87.18
2018-04-13T02:06:29.796Z,86.99
2018-04-13T02:07:29.793Z,87.08
2018-04-13T02:08:29.776Z,86.7
2018-04-13T02:09:29.766Z,86.42
2018-04-13T02:10:29.757Z,85.56
2018-04-13T02:11:29.745Z,85.66
2018-04-13T02:12:29.739Z,85.75
2018-04-13T02:13:29.470Z,85.08
2018-04-13T02:14:29.727Z,84.13
2018-04-13T02:15:29.457Z,84.04
2018-04-13T02:16:29.702Z,83.9
2018-04-13T02:17:29.435Z,83.04
2018-04-13T02:18:29.431Z,82.57
2018-04-13T02:19:29.678Z,82.67
2018-04-13T02:20:29.666Z,82.19
2018-04-13T02:21:29.398Z,80.86
2018-04-13T02:22:29.645Z,80.29
2018-04-13T02:23:29.641Z,80
2018-04-13T02:24:29.368Z,79.43
2018-04-13T02:25:29.364Z,78.67
2018-04-13T02:26:29.610Z,79.24
2018-04-13T02:27:29.678Z,78.48
2018-04-13T02:28:29.586Z,78
2018-04-13T02:29:29.321Z,77.91
2018-04-13T02:30:29.568Z,77.43
2018-04-13T02:31:29.561Z,77.72
2018-04-13T02:32:29.554Z,77.15
2018-04-13T02:33:29.537Z,76.76
2018-04-13T02:34:29.736Z,76.06
2018-04-13T02:35:29.267Z,76.44
2018-04-13T02:36:29.254Z,76.25
2018-04-13T02:37:29.504Z,76.16
2018-04-13T02:38:29.238Z,76.63
2018-04-13T02:39:29.481Z,76.44
2018-04-13T02:40:29.472Z,76.92
2018-04-13T02:41:29.204Z,76.92
2018-04-13T02:42:29.459Z,77.97
2018-04-13T02:43:29.186Z,78.06
2018-04-13T02:44:29.439Z,77.87
2018-04-13T02:45:29.426Z,77.58
2018-04-13T02:46:29.416Z,77.39
2018-04-13T02:47:29.405Z,77.39
2018-04-13T02:48:29.400Z,77.11
2018-04-13T02:49:29.391Z,76.63
2018-04-13T02:50:29.377Z,76.06
2018-04-13T02:51:29.360Z,76.35
2018-04-13T02:52:29.365Z,76.16
2018-04-13T02:53:29.084Z,76.06
2018-04-13T02:54:29.075Z,74.92
2018-04-13T02:55:29.066Z,74.35
2018-04-13T02:56:29.316Z,75.11
2018-04-13T02:57:29.301Z,75.68
2018-04-13T02:58:29.287Z,75.21
2018-04-13T02:59:29.023Z,74.35
2018-04-13T03:00:29.268Z,75.21
2018-04-13T03:01:29.257Z,75.02
2018-04-13T03:02:29.246Z,74.16
2018-04-13T03:03:29.236Z,73.49
2018-04-13T03:04:29.235Z,73.02
2018-04-13T03:05:29.231Z,73.49
2018-04-13T03:06:29.205Z,73.21
2018-04-13T03:07:29.200Z,73.21
2018-04-13T03:08:29.188Z,73.3
2018-04-13T03:09:28.916Z,73.3
2018-04-13T03:10:29.172Z,72.55
2018-04-13T03:11:29.156Z,72.74
2018-04-13T03:12:29.142Z,71.41
2018-04-13T03:13:29.132Z,70.45
2018-04-13T03:14:28.865Z,70.74
2018-04-13T03:15:29.113Z,71.31
2018-04-13T03:16:29.102Z,71.22
2018-04-13T03:17:29.093Z,70.07
2018-04-13T03:18:28.837Z,70.26
2018-04-13T03:19:28.816Z,69.88
2018-04-13T03:20:29.064Z,69.88
2018-04-13T03:21:28.797Z,70.17
2018-04-13T03:22:29.042Z,69.69
2018-04-13T03:23:29.035Z,68.65
2018-04-13T03:24:28.764Z,68.55
2018-04-13T03:25:28.753Z,68.46
2018-04-13T03:26:29.047Z,68.46
2018-04-13T03:27:28.990Z,69.5
2018-04-13T03:28:28.981Z,69.41
2018-04-13T03:29:28.966Z,69.88
2018-04-13T03:30:28.962Z,69.79
2018-04-13T03:31:28.698Z,70.45
2018-04-13T03:32:28.941Z,69.69
2018-04-13T03:33:28.924Z,69.79
2018-04-13T03:34:28.920Z,70.26
2018-04-13T03:35:28.911Z,69.79
2018-04-13T03:36:28.642Z,68.93
2018-04-13T03:37:28.886Z,68.84
2018-04-13T03:38:28.617Z,68.36
2018-04-13T03:39:28.866Z,69.02
2018-04-13T03:40:28.862Z,69.5
2018-04-13T03:41:28.598Z,70.2
2018-04-13T03:42:28.836Z,70.3
2018-04-13T03:43:28.822Z,70.26
2018-04-13T03:44:28.557Z,68.96
2018-04-13T03:45:28.806Z,68.11
2018-04-13T03:46:28.794Z,68.21
2018-04-13T03:47:28.528Z,68.68
2018-04-13T03:48:28.520Z,69.92
2018-04-13T03:49:28.763Z,70.39
2018-04-13T03:50:28.752Z,70.87
2018-04-13T03:51:28.740Z,71.06
2018-04-13T03:52:28.476Z,70.97
2018-04-13T03:53:28.722Z,71.72
2018-04-13T03:54:28.791Z,72.01
2018-04-13T03:55:28.703Z,71.34
2018-04-13T03:56:28.689Z,71.15
2018-04-13T03:57:28.678Z,70.39
2018-04-13T03:58:28.415Z,69.82
2018-04-13T03:59:28.404Z,70.39
2018-04-13T04:00:28.658Z,70.87
2018-04-13T04:01:28.642Z,69.44
2018-04-13T04:02:28.372Z,69.06
2018-04-13T04:03:28.363Z,69.15
2018-04-13T04:04:28.353Z,69.35
2018-04-13T04:05:28.596Z,69.15
2018-04-13T04:06:28.591Z,69.82
2018-04-13T04:07:28.579Z,70.1
2018-04-13T04:08:28.311Z,69.44
2018-04-13T04:09:28.555Z,69.92
2018-04-13T04:10:28.551Z,70.58
2018-04-13T04:11:28.280Z,70.77
2018-04-13T04:12:28.528Z,70.49
2018-04-13T04:13:28.262Z,69.06
2018-04-13T04:14:28.509Z,68.3
2018-04-13T04:15:28.237Z,68.01
2018-04-13T04:16:28.258Z,68.01
2018-04-13T04:17:28.480Z,68.21
2018-04-13T04:18:28.210Z,68.11
2018-04-13T04:19:28.466Z,68.77
2018-04-13T04:20:28.186Z,69.06
2018-04-13T04:21:28.436Z,69.06
2018-04-13T04:22:28.431Z,69.44
2018-04-13T04:23:28.414Z,69.44
2018-04-13T04:24:28.412Z,70.49
2018-04-13T04:25:28.137Z,70.87
2018-04-13T04:26:28.386Z,71.34
2018-04-13T04:27:28.117Z,71.44
2018-04-13T04:28:28.368Z,70.39
2018-04-13T04:29:28.370Z,69.54
2018-04-13T04:30:28.347Z,70.3
2018-04-13T04:31:28.078Z,70.49
2018-04-13T04:32:28.069Z,70.24
2018-04-13T04:33:28.325Z,70.01
2018-04-13T04:34:28.345Z,70.3
2018-04-13T04:35:28.297Z,69.82
2018-04-13T04:36:28.284Z,69.06
2018-04-13T04:37:28.274Z,68.77
2018-04-13T04:38:28.263Z,68.68
2018-04-13T04:39:27.997Z,68.96
2018-04-13T04:40:28.243Z,68.87
2018-04-13T04:41:27.987Z,68.49
2018-04-13T04:42:28.229Z,69.06
2018-04-13T04:43:27.956Z,69.76
2018-04-13T04:44:27.943Z,69.67
2018-04-13T04:45:27.937Z,70.49
2018-04-13T04:46:28.187Z,71.57
2018-04-13T04:47:27.921Z,71.47
2018-04-13T04:48:28.160Z,70.62
2018-04-13T04:49:27.904Z,70.14
2018-04-13T04:50:27.887Z,70.62
2018-04-13T04:51:28.135Z,71.38
2018-04-13T04:52:28.125Z,71.47
2018-04-13T04:53:28.124Z,72.33
2018-04-13T04:54:28.116Z,72.33
2018-04-13T04:55:28.098Z,72.14
2018-04-13T04:56:28.091Z,72.52
2018-04-13T04:57:28.083Z,73.85
2018-04-13T04:58:28.067Z,73.99
2018-04-13T04:59:27.800Z,73.95
2018-04-13T05:00:28.054Z,74.37
2018-04-13T05:01:28.045Z,74.08
2018-04-13T05:02:28.027Z,74.46
2018-04-13T05:03:27.766Z,75.7
2018-04-13T05:04:27.754Z,76.84
2018-04-13T05:05:28.005Z,77.03
2018-04-13T05:06:27.988Z,76.08
2018-04-13T05:07:27.978Z,76.27
2018-04-13T05:08:27.977Z,76.75
2018-04-13T05:09:27.970Z,77.8
2018-04-13T05:10:27.697Z,77.8
2018-04-13T05:11:27.686Z,77.98
2018-04-13T05:12:27.678Z,78.22
2018-04-13T05:13:27.928Z,79.36
2018-04-13T05:14:27.965Z,80.41
2018-04-13T05:15:27.909Z,80.41
2018-04-13T05:16:27.896Z,81.93
2018-04-13T05:17:27.894Z,82.12
2018-04-13T05:18:27.633Z,82.31
2018-04-13T05:19:27.873Z,82.79
2018-04-13T05:20:27.601Z,83.36
2018-04-13T05:21:27.850Z,83.84
2018-04-13T05:22:27.587Z,83.31
2018-04-13T05:23:27.836Z,84.74
2018-04-13T05:24:27.872Z,84.74
2018-04-13T05:25:27.819Z,84.64
2018-04-13T05:26:27.808Z,85.31
2018-04-13T05:27:27.796Z,85.31
2018-04-13T05:28:27.787Z,85.97
2018-04-13T05:29:27.782Z,85.78
2018-04-13T05:30:27.780Z,86.65
2018-04-13T05:31:27.766Z,86.65
2018-04-13T05:32:27.753Z,86.83
2018-04-13T05:33:27.747Z,86.45
2018-04-13T05:34:27.771Z,86.55
2018-04-13T05:35:27.470Z,86.74
2018-04-13T05:36:27.725Z,87.35
2018-04-13T05:37:27.715Z,88.21
2018-04-13T05:38:27.704Z,88.4
2018-04-13T05:39:27.717Z,88.69
2018-04-13T05:40:27.684Z,88.69
2018-04-13T05:41:27.681Z,91.93
2018-04-13T05:42:27.677Z,91.55
2018-04-13T05:43:27.401Z,91.55
2018-04-13T05:44:27.668Z,89.83
2018-04-13T05:45:27.642Z,90.79
2018-04-13T05:46:27.634Z,91.27
2018-04-13T05:47:27.626Z,90.59
2018-04-13T05:48:27.365Z,91.93
2018-04-13T05:49:27.358Z,92.6
2018-04-13T05:50:27.601Z,92.41
2018-04-13T05:51:27.597Z,93.17
2018-04-13T05:52:27.592Z,92.83
2018-04-13T05:53:27.578Z,93.12
2018-04-13T05:54:27.573Z,93.22
2018-04-13T05:55:27.307Z,93.7
2018-04-13T05:56:27.303Z,92.93
2018-04-13T05:57:27.289Z,93.7
2018-04-13T05:58:27.541Z,93.79
2018-04-13T05:59:27.535Z,94.36
2018-04-13T06:00:27.522Z,94.17
2018-04-13T06:01:27.520Z,94.27
2018-04-13T06:02:27.512Z,94.17
2018-04-13T06:03:27.503Z,93.98
2018-04-13T06:04:27.239Z,94.56
2018-04-13T06:05:27.488Z,94.03
2018-04-13T06:06:27.480Z,94.51
2018-04-13T06:07:27.469Z,94.6
2018-04-13T06:08:27.462Z,94.98
2018-04-13T06:09:27.199Z,94.79
2018-04-13T06:10:27.191Z,94.79
2018-04-13T06:11:27.439Z,94.79
2018-04-13T06:12:27.436Z,94.6
2018-04-13T06:13:27.208Z,94.7
2018-04-13T06:14:27.418Z,94.41
2018-04-13T06:15:27.418Z,94.79
2018-04-13T06:16:27.148Z,94.6
2018-04-13T06:17:27.399Z,94.6
2018-04-13T06:18:27.128Z,94.51
2018-04-13T06:19:27.125Z,94.98
2018-04-13T06:20:27.114Z,94.6
2018-04-13T06:21:27.107Z,94.41
2018-04-13T06:22:27.356Z,93.93
2018-04-13T06:23:27.353Z,93.93
2018-04-13T06:24:27.113Z,93.36
2018-04-13T06:25:27.344Z,93.17
2018-04-13T06:26:27.327Z,93.36
2018-04-13T06:27:27.320Z,93.07
2018-04-13T06:28:27.318Z,93.46
2018-04-13T06:29:27.318Z,92.69
2018-04-13T06:30:27.299Z,92.79
2018-04-13T06:31:27.038Z,93.17
2018-04-13T06:32:27.285Z,92.41
2018-04-13T06:33:27.279Z,92.79
2018-04-13T06:34:27.017Z,93.31
2018-04-13T06:35:27.273Z,93.5
2018-04-13T06:36:27.258Z,92.93
2018-04-13T06:37:26.997Z,92.88
2018-04-13T06:38:26.988Z,93.07
2018-04-13T06:39:27.238Z,93.07
2018-04-13T06:40:27.231Z,92.74
2018-04-13T06:41:27.228Z,91.69
2018-04-13T06:42:27.218Z,91.5
2018-04-13T06:43:27.208Z,92.16
2018-04-13T06:44:26.948Z,92.55
2018-04-13T06:45:26.941Z,92.07
2018-04-13T06:46:27.196Z,92.74
2018-04-13T06:47:26.928Z,92.93
2018-04-13T06:48:27.183Z,92.93
2018-04-13T06:49:27.178Z,92.93
2018-04-13T06:50:26.916Z,93.36
2018-04-13T06:51:27.202Z,92.69
2018-04-13T06:52:27.156Z,93.36
2018-04-13T06:53:27.152Z,92.97
2018-04-13T06:54:27.150Z,92.59
2018-04-13T06:55:27.134Z,92.21
2018-04-13T06:56:27.122Z,92.59
2018-04-13T06:57:26.864Z,92.97
2018-04-13T06:58:27.119Z,92.69
2018-04-13T06:59:26.848Z,91.45
2018-04-13T07:00:27.102Z,92.11
2018-04-13T07:01:27.102Z,92.4
2018-04-13T07:02:27.186Z,91.83
2018-04-13T07:03:27.083Z,92.3
2018-04-13T07:04:26.815Z,92.21
2018-04-13T07:05:26.811Z,92.5
2018-04-13T07:06:26.806Z,92.55
2018-04-13T07:07:26.802Z,92.07
2018-04-13T07:08:26.796Z,91.88
2018-04-13T07:09:26.784Z,91.11
2018-04-13T07:10:27.034Z,91.4
2018-04-13T07:11:27.032Z,90.92
2018-04-13T07:12:27.030Z,91.11
2018-04-13T07:13:27.026Z,91.11
2018-04-13T07:14:27.011Z,90.64
2018-04-13T07:15:27.007Z,91.21
2018-04-13T07:16:26.743Z,91.11
2018-04-13T07:17:26.995Z,91.21
2018-04-13T07:18:26.984Z,91.02
2018-04-13T07:19:26.723Z,92.11
2018-04-13T07:20:26.977Z,91.69
2018-04-13T07:21:26.966Z,92.83
2018-04-13T07:22:26.962Z,92.5
2018-04-13T07:23:26.959Z,92.07
2018-04-13T07:24:26.951Z,91.88
2018-04-13T07:25:26.945Z,92.45
2018-04-13T07:26:26.937Z,92.36
2018-04-13T07:27:26.928Z,92.45
2018-04-13T07:28:26.921Z,92.55
2018-04-13T07:29:26.657Z,92.26
2018-04-13T07:30:26.910Z,93.36
2018-04-13T07:31:26.974Z,92.97
2018-04-13T07:32:27.279Z,92.59
2018-04-13T07:33:26.637Z,93.4
2018-04-13T07:34:26.928Z,93.4
2018-04-13T07:35:27.198Z,93.55
2018-04-13T07:36:26.612Z,93.55
2018-04-13T07:37:26.610Z,93.93
2018-04-13T07:38:26.871Z,94.21
2018-04-13T07:39:26.995Z,94.26
2018-04-13T07:40:27.040Z,94.26
2018-04-13T07:41:26.587Z,94.17
2018-04-13T07:42:26.583Z,94.69
2018-04-13T07:43:26.836Z,94.6
2018-04-13T07:44:26.574Z,94.21
2018-04-13T07:45:26.826Z,94.21
2018-04-13T07:46:26.820Z,94.4
2018-04-13T07:47:26.810Z,94.5
2018-04-13T07:48:26.547Z,94.4
2018-04-13T07:49:26.547Z,94.5
2018-04-13T07:50:26.543Z,94.36
2018-04-13T07:51:27.129Z,94.17
2018-04-13T07:52:26.861Z,94.65
2018-04-13T07:53:26.787Z,94.45
2018-04-13T07:54:26.518Z,94.41
2018-04-13T07:55:26.770Z,94.6
2018-04-13T07:56:26.766Z,94.79
2018-04-13T07:57:26.767Z,94.41
2018-04-13T07:58:26.764Z,94.98
2018-04-13T07:59:26.512Z,94.89
2018-04-13T08:00:26.748Z,94.7
2018-04-13T08:01:26.484Z,94.41
2018-04-13T08:02:26.480Z,94.89
2018-04-13T08:03:26.733Z,94.79
2018-04-13T08:04:26.732Z,95.22
2018-04-13T08:05:26.746Z,94.7
2018-04-13T08:06:26.467Z,94.98
2018-04-13T08:07:26.456Z,94.6
2018-04-13T08:08:26.450Z,95.12
2018-04-13T08:09:26.444Z,94.93
2018-04-13T08:10:26.693Z,94.36
2018-04-13T08:11:26.691Z,94.65
2018-04-13T08:12:26.723Z,94.36
2018-04-13T08:13:26.683Z,94.36
2018-04-13T08:14:26.675Z,94.74
2018-04-13T08:15:26.801Z,94.74
2018-04-13T08:16:26.521Z,94.74
2018-04-13T08:17:26.663Z,94.84
2018-04-13T08:18:26.658Z,94.65
2018-04-13T08:19:26.406Z,94.84
2018-04-13T08:20:26.386Z,93.98
2018-04-13T08:21:26.636Z,93.98
2018-04-13T08:22:26.634Z,94.84
2018-04-13T08:23:26.650Z,94.17
2018-04-13T08:24:26.626Z,94.65
2018-04-13T08:25:26.616Z,94.17
2018-04-13T08:26:26.354Z,94.26
2018-04-13T08:27:26.608Z,93.69
2018-04-13T08:28:26.347Z,94.55
2018-04-13T08:29:26.597Z,94.07
2018-04-13T08:30:26.593Z,94.74
2018-04-13T08:31:26.586Z,94.36
2018-04-13T08:32:26.581Z,94.55
2018-04-13T08:33:26.578Z,93.69
2018-04-13T08:34:26.591Z,94.36
2018-04-13T08:35:26.621Z,93.69
2018-04-13T08:36:26.301Z,94.07
2018-04-13T08:37:26.305Z,93.5
2018-04-13T08:38:26.552Z,93.79
2018-04-13T08:39:26.284Z,94.36
2018-04-13T08:40:26.285Z,93.88
2018-04-13T08:41:26.279Z,94.55
2018-04-13T08:42:26.525Z,94.84
2018-04-13T08:43:26.729Z,94.07
2018-04-13T08:44:26.518Z,94.55
2018-04-13T08:45:26.279Z,94.55
2018-04-13T08:46:26.507Z,94.46
2018-04-13T08:47:26.500Z,93.79
2018-04-13T08:48:26.496Z,94.65
2018-04-13T08:49:26.494Z,94.07
2018-04-13T08:50:26.485Z,93.98
2018-04-13T08:51:26.219Z,94.07
2018-04-13T08:52:26.496Z,94.17
2018-04-13T08:53:26.464Z,94.46
2018-04-13T08:54:26.493Z,93.88
2018-04-13T08:55:26.198Z,94.17
2018-04-13T08:56:26.536Z,93.79
2018-04-13T08:57:26.448Z,93.88
2018-04-13T08:58:26.183Z,93.31
2018-04-13T08:59:26.434Z,93.5
2018-04-13T09:00:26.437Z,93.6
2018-04-13T09:01:26.424Z,93.88
2018-04-13T09:02:26.444Z,93.5
2018-04-13T09:03:26.414Z,93.31
2018-04-13T09:04:26.147Z,93.79
2018-04-13T09:05:26.448Z,93.12
2018-04-13T09:06:26.542Z,93.02
2018-04-13T09:07:26.401Z,92.74
2018-04-13T09:08:26.129Z,92.16
2018-04-13T09:09:26.126Z,90.16
2018-04-13T09:10:26.117Z,89.96
2018-04-13T09:11:26.110Z,90.16
2018-04-13T09:12:26.370Z,90.06
2018-04-13T09:13:26.384Z,90.06
2018-04-13T09:14:26.354Z,90.82
2018-04-13T09:15:26.346Z,90.06
2018-04-13T09:16:26.344Z,89.67
2018-04-13T09:17:26.358Z,90.53
2018-04-13T09:18:26.070Z,89.67
2018-04-13T09:19:26.330Z,88.15
2018-04-13T09:20:26.324Z,87.29
2018-04-13T09:21:26.312Z,88.43
2018-04-13T09:22:26.312Z,90.06
2018-04-13T09:23:26.307Z,90.67
2018-04-13T09:24:26.037Z,90.34
2018-04-13T09:25:26.289Z,89.87
2018-04-13T09:26:26.298Z,90.25
2018-04-13T09:27:26.277Z,91.39
2018-04-13T09:28:26.276Z,87.95
2018-04-13T09:29:26.269Z,88.72
2018-04-13T09:30:26.266Z,89.29
2018-04-13T09:31:26.259Z,88.43
2018-04-13T09:32:26.256Z,87.76
2018-04-13T09:33:26.265Z,87.76
2018-04-13T09:34:26.254Z,88.24
2018-04-13T09:35:25.981Z,88.34
2018-04-13T09:36:25.978Z,88.91
2018-04-13T09:37:26.357Z,89.48
2018-04-13T09:38:26.228Z,88.53
2018-04-13T09:39:25.966Z,90.16
2018-04-13T09:40:26.213Z,90.06
2018-04-13T09:41:26.203Z,89.67
2018-04-13T09:42:26.203Z,89.48
2018-04-13T09:43:26.200Z,90.16
2018-04-13T09:44:26.374Z,89.96
2018-04-13T09:45:26.188Z,90.44
2018-04-13T09:46:26.182Z,89.81
2018-04-13T09:47:26.173Z,90.96
2018-04-13T09:48:25.909Z,91.16
2018-04-13T09:49:26.166Z,91.25
2018-04-13T09:50:26.169Z,91.68
2018-04-13T09:51:26.164Z,91.68
2018-04-13T09:52:26.151Z,91.49
2018-04-13T09:53:26.146Z,92.68
2018-04-13T09:54:26.147Z,93.35
2018-04-13T09:55:26.138Z,93.93
2018-04-13T09:56:26.131Z,93.88
2018-04-13T09:57:26.131Z,93.49
2018-04-13T09:58:26.121Z,93.3
2018-04-13T09:59:26.122Z,93.59
2018-04-13T10:00:26.118Z,93.78
2018-04-13T10:01:26.120Z,94.17
2018-04-13T10:02:26.101Z,93.98
2018-04-13T10:03:26.108Z,93.59
2018-04-13T10:04:26.106Z,94.12
2018-04-13T10:05:26.099Z,94.4
2018-04-13T10:06:25.831Z,94.5
2018-04-13T10:07:26.107Z,94.69
2018-04-13T10:08:26.079Z,94.5
2018-04-13T10:09:26.296Z,94.17
2018-04-13T10:10:26.072Z,93.98
2018-04-13T10:11:25.810Z,94.07
2018-04-13T10:12:26.062Z,94.12
2018-04-13T10:13:26.060Z,93.93
2018-04-13T10:14:26.055Z,94.12
2018-04-13T10:15:26.052Z,93.93
2018-04-13T10:16:25.791Z,93.93
2018-04-13T10:17:26.040Z,93.79
2018-04-13T10:18:26.035Z,93.5
2018-04-13T10:19:25.773Z,93.98
2018-04-13T10:20:26.031Z,93.98
2018-04-13T10:21:26.022Z,93.31
2018-04-13T10:22:26.016Z,92.88
2018-04-13T10:23:25.755Z,92.83
2018-04-13T10:24:25.755Z,92.74
2018-04-13T10:25:26.000Z,92.88
2018-04-13T10:26:25.995Z,92.16
2018-04-13T10:27:25.994Z,91.83
2018-04-13T10:28:25.994Z,91.45
2018-04-13T10:29:25.979Z,91.74
2018-04-13T10:30:25.715Z,91.06
2018-04-13T10:31:25.967Z,91.25
2018-04-13T10:32:25.965Z,91.06
2018-04-13T10:33:25.962Z,91.06
2018-04-13T10:34:25.695Z,90.11
2018-04-13T10:35:25.691Z,90.59
2018-04-13T10:36:25.682Z,90.78
2018-04-13T10:37:25.937Z,91.16
2018-04-13T10:38:25.929Z,90.49
2018-04-13T10:39:25.924Z,90.11
2018-04-13T10:40:25.928Z,89.44
2018-04-13T10:41:25.910Z,89.82
2018-04-13T10:42:25.903Z,91.16
2018-04-13T10:43:25.911Z,91.25
2018-04-13T10:44:25.899Z,90.49
2018-04-13T10:45:25.632Z,90.2
2018-04-13T10:46:25.631Z,90.2
2018-04-13T10:47:25.875Z,90.06
2018-04-13T10:48:25.869Z,89.1
2018-04-13T10:49:26.035Z,88.15
2018-04-13T10:50:25.862Z,87.38
2018-04-13T10:51:25.855Z,87
2018-04-13T10:52:25.854Z,86.52
2018-04-13T10:53:25.845Z,85.94
2018-04-13T10:54:25.578Z,87.86
2018-04-13T10:55:25.842Z,87.38
2018-04-13T10:56:25.829Z,87.29
2018-04-13T10:57:25.819Z,89.53
2018-04-13T10:58:25.815Z,89.43
2018-04-13T10:59:25.808Z,89.34
2018-04-13T11:00:25.808Z,90.77
2018-04-13T11:01:25.801Z,89.34
2018-04-13T11:02:25.538Z,89.15
2018-04-13T11:03:25.791Z,90.3
2018-04-13T11:04:25.527Z,89.72
2018-04-13T11:05:25.524Z,87.08
2018-04-13T11:06:25.775Z,88.52
2018-04-13T11:07:25.770Z,89.38
2018-04-13T11:08:25.762Z,90.05
2018-04-13T11:09:25.759Z,89.58
2018-04-13T11:10:25.493Z,90.67
2018-04-13T11:11:25.746Z,92.58
2018-04-13T11:12:25.743Z,95.17
2018-04-13T11:13:25.741Z,93.64
2018-04-13T11:14:25.737Z,93.93
2018-04-13T11:15:25.733Z,94.4
2018-04-13T11:16:25.474Z,93.93
2018-04-13T11:17:25.463Z,93.93
2018-04-13T11:18:25.718Z,93.45
2018-04-13T11:19:25.452Z,94.17
2018-04-13T11:20:25.451Z,94.69
2018-04-13T11:21:25.708Z,94.17
2018-04-13T11:22:25.705Z,93.69
2018-04-13T11:23:25.696Z,93.59
2018-04-13T11:24:25.689Z,94.07
2018-04-13T11:25:25.430Z,94.65
2018-04-13T11:26:25.689Z,94.89
2018-04-13T11:27:25.676Z,93.84
2018-04-13T11:28:25.672Z,94.41
2018-04-13T11:29:25.407Z,94.12
2018-04-13T11:30:25.665Z,93.74
2018-04-13T11:31:25.399Z,93.93
2018-04-13T11:32:25.403Z,94.07
2018-04-13T11:33:25.650Z,92.83
2018-04-13T11:34:25.647Z,93.31
2018-04-13T11:35:25.386Z,93.5
2018-04-13T11:36:25.380Z,91.78
2018-04-13T11:37:25.374Z,92.16
2018-04-13T11:38:25.626Z,90.53
2018-04-13T11:39:25.628Z,92.21
2018-04-13T11:40:25.623Z,92.4
2018-04-13T11:41:25.613Z,93.5
2018-04-13T11:42:25.352Z,93.5
2018-04-13T11:43:25.605Z,90.91
2018-04-13T11:44:25.344Z,92.49
2018-04-13T11:45:25.597Z,94.69
2018-04-13T11:46:25.589Z,94.55
2018-04-13T11:47:25.590Z,93.4
2018-04-13T11:48:25.588Z,93.02
2018-04-13T11:49:25.576Z,93.49
2018-04-13T11:50:25.573Z,92.92
2018-04-13T11:51:25.572Z,91.39
2018-04-13T11:52:25.572Z,92.82
2018-04-13T11:53:25.303Z,93.35
2018-04-13T11:54:25.588Z,92.97
2018-04-13T11:55:25.553Z,92.3
2018-04-13T11:56:25.548Z,93.54
2018-04-13T11:57:25.285Z,94.21
2018-04-13T11:58:25.284Z,92.78
2018-04-13T11:59:25.537Z,93.26
2018-04-13T12:00:25.272Z,93.4
2018-04-13T12:01:25.525Z,92.35
2018-04-13T12:02:25.527Z,92.54
2018-04-13T12:03:25.520Z,93.02
2018-04-13T12:04:25.516Z,93.4
2018-04-13T12:05:25.507Z,93.26
2018-04-13T12:06:25.504Z,93.12
2018-04-13T12:07:25.501Z,93.98
2018-04-13T12:08:25.494Z,93.55
2018-04-13T12:09:25.240Z,93.55
2018-04-13T12:10:25.487Z,93.4
2018-04-13T12:11:25.487Z,93.21
2018-04-13T12:12:25.221Z,92.11
2018-04-13T12:13:25.476Z,92.88
2018-04-13T12:14:25.506Z,93.26
2018-04-13T12:15:25.207Z,93.55
2018-04-13T12:16:25.465Z,93.55
2018-04-13T12:17:25.453Z,93.55
2018-04-13T12:18:25.451Z,92.59
2018-04-13T12:19:25.443Z,92.78
2018-04-13T12:20:25.441Z,93.35
2018-04-13T12:21:25.433Z,92.92
2018-04-13T12:22:25.429Z,93.69
2018-04-13T12:23:25.427Z,93.4
2018-04-13T12:24:25.423Z,91.39
2018-04-13T12:25:25.158Z,91.68
2018-04-13T12:26:25.412Z,91.15
2018-04-13T12:27:25.407Z,91.72
2018-04-13T12:28:25.401Z,91.05
2018-04-13T12:29:25.399Z,91.44
2018-04-13T12:30:25.389Z,90.67
2018-04-13T12:31:25.476Z,90
2018-04-13T12:32:25.381Z,91.15
2018-04-13T12:33:25.378Z,88.37
2018-04-13T12:34:25.372Z,85.88
2018-04-13T12:35:25.368Z,87.61
2018-04-13T12:36:25.364Z,88.28
2018-04-13T12:37:25.357Z,89.33
2018-04-13T12:38:25.102Z,89.33
2018-04-13T12:39:25.089Z,88.85
2018-04-13T12:40:25.345Z,88.85
2018-04-13T12:41:25.340Z,88.18
2018-04-13T12:42:25.078Z,88.56
2018-04-13T12:43:25.332Z,91.19
2018-04-13T12:44:25.337Z,86.69
2018-04-13T12:45:25.322Z,86.6
2018-04-13T12:46:25.321Z,87.46
2018-04-13T12:47:25.314Z,87.27
2018-04-13T12:48:25.048Z,86.12
2018-04-13T12:49:25.306Z,84.11
2018-04-13T12:50:25.301Z,84.11
2018-04-13T12:51:25.296Z,83.53
2018-04-13T12:52:25.293Z,85.45
2018-04-13T12:53:25.357Z,86.31
2018-04-13T12:54:25.537Z,88.8
2018-04-13T12:55:25.331Z,87.65